sensor_id;sensor_type;location;lat;lon;timestamp;pressure;altitude;pressure_sealevel;temperature;humidity
53514;BME280;39768;54.148;12.174;2023-04-19T00:03:16;103094.13;;;9.17;67.62
53514;BME280;39768;54.148;12.174;2023-04-19T00:07:17;103090.63;;;9.20;66.95
53514;BME280;39768;54.148;12.174;2023-04-19T00:11:20;103092.69;;;9.29;66.22
53514;BME280;39768;54.148;12.174;2023-04-19T00:15:22;103091.25;;;9.41;64.71
53514;BME280;39768;54.148;12.174;2023-04-19T00:19:23;103082.53;;;9.14;65.50
53514;BME280;39768;54.148;12.174;2023-04-19T00:23:24;103082.53;;;9.14;64.94
53514;BME280;39768;54.148;12.174;2023-04-19T00:27:26;103083.56;;;9.20;64.35
53514;BME280;39768;54.148;12.174;2023-04-19T00:31:27;103085.88;;;9.08;66.39
53514;BME280;39768;54.148;12.174;2023-04-19T00:35:30;103082.44;;;8.54;66.89
53514;BME280;39768;54.148;12.174;2023-04-19T00:39:32;103085.66;;;9.01;67.00
53514;BME280;39768;54.148;12.174;2023-04-19T00:43:33;103082.81;;;8.95;67.58
53514;BME280;39768;54.148;12.174;2023-04-19T00:47:35;103076.84;;;8.45;71.48
53514;BME280;39768;54.148;12.174;2023-04-19T00:51:37;103069.69;;;8.69;73.08
53514;BME280;39768;54.148;12.174;2023-04-19T00:55:38;103078.69;;;8.76;70.74
53514;BME280;39768;54.148;12.174;2023-04-19T00:59:40;103078.44;;;8.40;74.24
53514;BME280;39768;54.148;12.174;2023-04-19T01:03:42;103069.75;;;9.01;72.83
53514;BME280;39768;54.148;12.174;2023-04-19T01:07:44;103080.03;;;8.90;77.04
53514;BME280;39768;54.148;12.174;2023-04-19T01:11:47;103074.44;;;8.81;77.46
53514;BME280;39768;54.148;12.174;2023-04-19T01:15:49;103068.13;;;9.06;75.00
53514;BME280;39768;54.148;12.174;2023-04-19T01:20:04;103070.13;;;9.13;72.18
53514;BME280;39768;54.148;12.174;2023-04-19T01:24:09;103064.81;;;9.43;72.70
53514;BME280;39768;54.148;12.174;2023-04-19T01:28:11;103059.41;;;9.40;70.90
53514;BME280;39768;54.148;12.174;2023-04-19T01:32:12;103062.56;;;9.27;70.89
53514;BME280;39768;54.148;12.174;2023-04-19T01:36:14;103051.97;;;9.58;69.72
53514;BME280;39768;54.148;12.174;2023-04-19T01:40:15;103057.22;;;9.57;68.39
53514;BME280;39768;54.148;12.174;2023-04-19T01:44:17;103042.72;;;9.75;64.09
53514;BME280;39768;54.148;12.174;2023-04-19T01:48:18;103048.56;;;9.62;65.05
53514;BME280;39768;54.148;12.174;2023-04-19T01:52:20;103037.81;;;9.58;63.63
53514;BME280;39768;54.148;12.174;2023-04-19T01:56:22;103034.13;;;9.85;62.20
53514;BME280;39768;54.148;12.174;2023-04-19T02:00:23;103024.56;;;9.58;62.57
53514;BME280;39768;54.148;12.174;2023-04-19T02:04:25;103026.00;;;9.78;61.68
53514;BME280;39768;54.148;12.174;2023-04-19T02:08:26;103019.59;;;9.38;62.58
53514;BME280;39768;54.148;12.174;2023-04-19T02:12:28;103020.34;;;9.33;62.95
53514;BME280;39768;54.148;12.174;2023-04-19T02:16:31;103011.97;;;9.50;62.99
53514;BME280;39768;54.148;12.174;2023-04-19T02:20:36;103001.88;;;9.37;63.51
53514;BME280;39768;54.148;12.174;2023-04-19T02:24:37;103009.59;;;9.60;61.32
53514;BME280;39768;54.148;12.174;2023-04-19T02:28:38;103001.50;;;9.55;60.36
53514;BME280;39768;54.148;12.174;2023-04-19T02:32:40;102999.81;;;9.59;59.55
53514;BME280;39768;54.148;12.174;2023-04-19T02:36:41;102998.06;;;9.59;58.62
53514;BME280;39768;54.148;12.174;2023-04-19T02:40:43;102998.66;;;9.82;56.20
53514;BME280;39768;54.148;12.174;2023-04-19T02:44:44;102997.00;;;9.52;55.81
53514;BME280;39768;54.148;12.174;2023-04-19T02:48:45;102990.66;;;9.46;55.77
53514;BME280;39768;54.148;12.174;2023-04-19T02:52:47;102991.09;;;9.63;55.65
53514;BME280;39768;54.148;12.174;2023-04-19T02:56:48;102980.56;;;9.66;54.66
53514;BME280;39768;54.148;12.174;2023-04-19T03:00:51;102977.06;;;9.34;55.78
53514;BME280;39768;54.148;12.174;2023-04-19T03:04:54;102979.53;;;9.28;60.99
53514;BME280;39768;54.148;12.174;2023-04-19T03:08:56;102977.75;;;9.27;63.17
53514;BME280;39768;54.148;12.174;2023-04-19T03:12:57;102971.03;;;9.39;63.30
53514;BME280;39768;54.148;12.174;2023-04-19T03:16:59;102972.06;;;9.44;64.59
53514;BME280;39768;54.148;12.174;2023-04-19T03:21:02;102964.38;;;9.22;65.87
53514;BME280;39768;54.148;12.174;2023-04-19T03:25:08;102955.78;;;9.31;66.74
53514;BME280;39768;54.148;12.174;2023-04-19T03:29:14;102958.22;;;9.23;68.83
53514;BME280;39768;54.148;12.174;2023-04-19T03:33:30;102966.34;;;9.29;69.43
53514;BME280;39768;54.148;12.174;2023-04-19T03:37:32;102957.78;;;9.08;71.94
53514;BME280;39768;54.148;12.174;2023-04-19T03:41:33;102954.25;;;9.40;69.90
53514;BME280;39768;54.148;12.174;2023-04-19T03:45:51;102946.56;;;9.51;71.20
53514;BME280;39768;54.148;12.174;2023-04-19T03:49:53;102945.69;;;9.50;70.99
53514;BME280;39768;54.148;12.174;2023-04-19T03:53:55;102953.97;;;9.30;72.15
53514;BME280;39768;54.148;12.174;2023-04-19T03:57:56;102943.72;;;9.10;71.23
53514;BME280;39768;54.148;12.174;2023-04-19T04:02:10;102946.94;;;9.65;70.44
53514;BME280;39768;54.148;12.174;2023-04-19T04:06:11;102948.47;;;9.22;70.79
53514;BME280;39768;54.148;12.174;2023-04-19T04:10:13;102949.28;;;9.52;69.25
53514;BME280;39768;54.148;12.174;2023-04-19T04:14:16;102941.00;;;9.40;66.90
53514;BME280;39768;54.148;12.174;2023-04-19T04:18:19;102940.53;;;9.57;66.54
53514;BME280;39768;54.148;12.174;2023-04-19T04:22:21;102946.81;;;9.96;64.47
53514;BME280;39768;54.148;12.174;2023-04-19T04:26:23;102943.19;;;9.91;66.32
53514;BME280;39768;54.148;12.174;2023-04-19T04:30:40;102941.88;;;9.74;68.49
53514;BME280;39768;54.148;12.174;2023-04-19T04:34:44;102944.66;;;9.78;68.98
53514;BME280;39768;54.148;12.174;2023-04-19T04:38:51;102944.09;;;10.68;64.81
53514;BME280;39768;54.148;12.174;2023-04-19T04:42:54;102941.69;;;11.25;61.11
53514;BME280;39768;54.148;12.174;2023-04-19T04:46:56;102939.72;;;12.16;57.78
53514;BME280;39768;54.148;12.174;2023-04-19T04:51:01;102938.34;;;14.18;49.94
53514;BME280;39768;54.148;12.174;2023-04-19T04:55:03;102940.59;;;13.66;48.88
53514;BME280;39768;54.148;12.174;2023-04-19T04:59:08;102941.72;;;13.97;46.19
53514;BME280;39768;54.148;12.174;2023-04-19T05:03:13;102942.03;;;12.55;49.76
53514;BME280;39768;54.148;12.174;2023-04-19T05:07:21;102943.19;;;13.57;46.77
53514;BME280;39768;54.148;12.174;2023-04-19T05:11:22;102945.03;;;13.61;47.84
53514;BME280;39768;54.148;12.174;2023-04-19T05:15:25;102933.66;;;13.87;47.88
53514;BME280;39768;54.148;12.174;2023-04-19T05:19:28;102940.75;;;13.86;46.38
53514;BME280;39768;54.148;12.174;2023-04-19T05:23:36;102945.06;;;13.67;46.63
53514;BME280;39768;54.148;12.174;2023-04-19T05:27:38;102942.00;;;12.54;50.92
53514;BME280;39768;54.148;12.174;2023-04-19T05:31:40;102937.59;;;12.56;50.88
53514;BME280;39768;54.148;12.174;2023-04-19T05:35:49;102933.03;;;12.46;51.00
53514;BME280;39768;54.148;12.174;2023-04-19T05:39:51;102922.56;;;11.48;53.68
53514;BME280;39768;54.148;12.174;2023-04-19T05:43:52;102926.69;;;11.79;53.48
53514;BME280;39768;54.148;12.174;2023-04-19T05:47:54;102916.88;;;11.25;54.41
53514;BME280;39768;54.148;12.174;2023-04-19T05:52:28;102919.00;;;10.98;56.27
53514;BME280;39768;54.148;12.174;2023-04-19T05:56:31;102916.97;;;11.32;56.35
53514;BME280;39768;54.148;12.174;2023-04-19T06:00:33;102921.31;;;11.26;54.93
53514;BME280;39768;54.148;12.174;2023-04-19T06:04:42;102919.28;;;11.62;54.13
53514;BME280;39768;54.148;12.174;2023-04-19T06:08:44;102931.84;;;11.73;53.66
53514;BME280;39768;54.148;12.174;2023-04-19T06:12:46;102911.50;;;11.75;55.26
53514;BME280;39768;54.148;12.174;2023-04-19T06:16:47;102923.38;;;11.93;54.62
53514;BME280;39768;54.148;12.174;2023-04-19T06:20:49;102927.81;;;11.43;53.80
53514;BME280;39768;54.148;12.174;2023-04-19T06:24:50;102925.06;;;11.87;53.43
53514;BME280;39768;54.148;12.174;2023-04-19T06:28:51;102922.59;;;11.49;54.60
53514;BME280;39768;54.148;12.174;2023-04-19T06:32:53;102912.63;;;11.89;53.27
53514;BME280;39768;54.148;12.174;2023-04-19T06:36:54;102917.44;;;12.11;52.56
53514;BME280;39768;54.148;12.174;2023-04-19T06:40:56;102916.34;;;11.97;53.38
53514;BME280;39768;54.148;12.174;2023-04-19T06:44:57;102914.59;;;12.64;52.70
53514;BME280;39768;54.148;12.174;2023-04-19T06:48:59;102919.69;;;11.84;52.29
53514;BME280;39768;54.148;12.174;2023-04-19T06:53:00;102917.31;;;12.05;52.78
53514;BME280;39768;54.148;12.174;2023-04-19T06:57:04;102910.81;;;12.45;52.72
53514;BME280;39768;54.148;12.174;2023-04-19T07:01:06;102905.75;;;12.00;52.81
53514;BME280;39768;54.148;12.174;2023-04-19T07:05:07;102919.34;;;12.21;52.89
53514;BME280;39768;54.148;12.174;2023-04-19T07:09:09;102904.47;;;12.37;52.72
53514;BME280;39768;54.148;12.174;2023-04-19T07:13:11;102902.13;;;12.60;52.30
53514;BME280;39768;54.148;12.174;2023-04-19T07:17:12;102900.19;;;12.50;51.42
53514;BME280;39768;54.148;12.174;2023-04-19T07:21:15;102899.66;;;12.80;50.61
53514;BME280;39768;54.148;12.174;2023-04-19T07:25:17;102897.31;;;13.04;51.67
53514;BME280;39768;54.148;12.174;2023-04-19T07:29:18;102890.38;;;12.47;50.50
53514;BME280;39768;54.148;12.174;2023-04-19T07:33:21;102892.56;;;12.80;51.23
53514;BME280;39768;54.148;12.174;2023-04-19T07:37:25;102893.03;;;12.44;50.89
53514;BME280;39768;54.148;12.174;2023-04-19T07:41:26;102880.69;;;12.52;51.55
53514;BME280;39768;54.148;12.174;2023-04-19T07:45:29;102881.09;;;12.86;52.76
53514;BME280;39768;54.148;12.174;2023-04-19T07:49:31;102882.75;;;12.78;49.91
53514;BME280;39768;54.148;12.174;2023-04-19T07:53:34;102871.78;;;12.50;50.68
53514;BME280;39768;54.148;12.174;2023-04-19T07:57:36;102871.47;;;13.00;50.04
53514;BME280;39768;54.148;12.174;2023-04-19T08:01:37;102879.34;;;12.88;49.44
53514;BME280;39768;54.148;12.174;2023-04-19T08:05:39;102873.63;;;12.54;49.83
53514;BME280;39768;54.148;12.174;2023-04-19T08:09:40;102865.03;;;12.81;50.47
53514;BME280;39768;54.148;12.174;2023-04-19T08:13:42;102868.84;;;13.03;49.47
53514;BME280;39768;54.148;12.174;2023-04-19T08:18:00;102867.16;;;13.14;47.95
53514;BME280;39768;54.148;12.174;2023-04-19T08:22:05;102853.97;;;13.26;48.53
53514;BME280;39768;54.148;12.174;2023-04-19T08:26:07;102857.22;;;12.98;48.62
53514;BME280;39768;54.148;12.174;2023-04-19T08:30:08;102845.81;;;12.32;48.46
53514;BME280;39768;54.148;12.174;2023-04-19T08:34:11;102847.84;;;12.53;49.88
53514;BME280;39768;54.148;12.174;2023-04-19T08:38:12;102856.19;;;12.84;49.87
53514;BME280;39768;54.148;12.174;2023-04-19T08:42:14;102851.66;;;12.78;48.39
53514;BME280;39768;54.148;12.174;2023-04-19T08:46:35;102837.88;;;13.16;46.59
53514;BME280;39768;54.148;12.174;2023-04-19T08:50:38;102845.13;;;13.30;47.59
53514;BME280;39768;54.148;12.174;2023-04-19T08:55:05;102852.66;;;13.88;45.92
53514;BME280;39768;54.148;12.174;2023-04-19T08:59:07;102842.03;;;13.94;43.78
53514;BME280;39768;54.148;12.174;2023-04-19T09:03:23;102850.38;;;13.20;41.71
53514;BME280;39768;54.148;12.174;2023-04-19T09:07:27;102841.72;;;13.51;44.46
53514;BME280;39768;54.148;12.174;2023-04-19T09:11:37;102840.94;;;13.67;44.93
53514;BME280;39768;54.148;12.174;2023-04-19T09:15:40;102823.16;;;13.66;43.84
53514;BME280;39768;54.148;12.174;2023-04-19T09:19:47;102835.53;;;13.57;39.16
53514;BME280;39768;54.148;12.174;2023-04-19T09:23:49;102832.84;;;13.54;41.96
53514;BME280;39768;54.148;12.174;2023-04-19T09:27:51;102816.66;;;13.29;41.26
53514;BME280;39768;54.148;12.174;2023-04-19T09:31:56;102819.28;;;13.25;40.22
53514;BME280;39768;54.148;12.174;2023-04-19T09:36:00;102808.41;;;13.03;39.21
53514;BME280;39768;54.148;12.174;2023-04-19T09:40:21;102801.88;;;13.82;42.35
53514;BME280;39768;54.148;12.174;2023-04-19T09:44:23;102799.34;;;14.01;43.83
53514;BME280;39768;54.148;12.174;2023-04-19T09:48:28;102789.53;;;13.99;42.39
53514;BME280;39768;54.148;12.174;2023-04-19T09:52:31;102792.28;;;14.19;42.32
53514;BME280;39768;54.148;12.174;2023-04-19T09:56:34;102796.63;;;13.91;40.58
53514;BME280;39768;54.148;12.174;2023-04-19T10:00:38;102786.91;;;14.06;42.13
53514;BME280;39768;54.148;12.174;2023-04-19T17:01:06;102518.91;;;12.09;35.79
53514;BME280;39768;54.148;12.174;2023-04-19T17:05:10;102507.50;;;12.23;35.52
53514;BME280;39768;54.148;12.174;2023-04-19T17:09:15;102526.13;;;12.22;35.94
53514;BME280;39768;54.148;12.174;2023-04-19T17:13:21;102510.25;;;12.35;35.58
53514;BME280;39768;54.148;12.174;2023-04-19T17:17:37;102497.63;;;12.10;35.34
53514;BME280;39768;54.148;12.174;2023-04-19T17:21:41;102517.34;;;12.35;36.19
53514;BME280;39768;54.148;12.174;2023-04-19T17:25:46;102488.75;;;12.08;36.38
53514;BME280;39768;54.148;12.174;2023-04-19T17:29:49;102488.09;;;12.40;35.76
53514;BME280;39768;54.148;12.174;2023-04-19T17:33:51;102505.69;;;12.16;35.68
53514;BME280;39768;54.148;12.174;2023-04-19T17:37:54;102503.78;;;12.00;36.02
53514;BME280;39768;54.148;12.174;2023-04-19T17:42:30;102471.34;;;12.57;35.85
53514;BME280;39768;54.148;12.174;2023-04-19T17:46:32;102474.59;;;12.12;37.20
53514;BME280;39768;54.148;12.174;2023-04-19T17:50:35;102479.19;;;12.36;37.21
53514;BME280;39768;54.148;12.174;2023-04-19T17:54:37;102481.59;;;12.02;38.34
53514;BME280;39768;54.148;12.174;2023-04-19T17:58:42;102502.19;;;12.23;38.16
53514;BME280;39768;54.148;12.174;2023-04-19T18:03:19;102503.63;;;11.85;37.19
53514;BME280;39768;54.148;12.174;2023-04-19T18:07:23;102502.88;;;12.02;37.31
53514;BME280;39768;54.148;12.174;2023-04-19T18:11:25;102505.34;;;11.78;37.28
